Time;durP1;ratioP1;P1;durP2;ratioP2;P2;SDS_P1;SDS_P2;PMS_P1;PMS_P2;Temp;Humidity;BMP_temperature;BMP_pressure;BME280_temperature;BME280_humidity;BME280_pressure;Samples;Min_cycle;Max_cycle;Signal;HPM_P1;HPM_P2
2024/01/03 00:00:57;;;;;;;1.10;0.80;;;;;;;;;;5072283;28;20535;-61
2024/01/03 00:03:24;;;;;;;2.00;0.90;;;;;;;;;;5072201;28;20446;-62
2024/01/03 00:05:51;;;;;;;1.00;0.90;;;;;;;;;;5072094;28;20446;-61
2024/01/03 00:08:22;;;;;;;1.93;0.80;;;;;;;;;;5072298;28;20483;-61
2024/01/03 00:10:51;;;;;;;1.67;0.80;;;;;;;;;;5072346;28;20547;-61
2024/01/03 00:13:51;;;;;;;0.80;0.80;;;;;;;;;;5072311;28;21031;-61
2024/01/03 00:16:20;;;;;;;0.73;0.70;;;;;;;;;;5072434;28;21010;-61
2024/01/03 00:18:49;;;;;;;0.80;0.70;;;;;;;;;;5072301;28;20863;-61
2024/01/03 00:21:22;;;;;;;1.10;0.80;;;;;;;;;;5072203;28;20451;-61
2024/01/03 00:23:50;;;;;;;0.97;0.87;;;;;;;;;;5072668;28;20451;-61
2024/01/03 00:26:19;;;;;;;1.20;0.80;;;;;;;;;;5072529;28;20475;-62
2024/01/03 00:28:46;;;;;;;0.80;0.70;;;;;;;;;;5075231;28;20514;-61
2024/01/03 00:31:17;;;;;;;0.70;0.70;;;;;;;;;;5076839;28;20443;-61
2024/01/03 00:33:44;;;;;;;3.00;0.70;;;;;;;;;;5076622;28;20530;-62
2024/01/03 00:36:13;;;;;;;0.70;0.70;;;;;;;;;;5076548;28;20961;-61
2024/01/03 00:38:42;;;;;;;0.83;0.70;;;;;;;;;;5076422;28;20982;-61
2024/01/03 00:41:09;;;;;;;4.93;0.70;;;;;;;;;;5075736;28;20916;-61
2024/01/03 00:43:38;;;;;;;0.70;0.60;;;;;;;;;;5075871;28;20485;-61
2024/01/03 00:46:05;;;;;;;1.57;0.70;;;;;;;;;;5075773;28;20534;-61
2024/01/03 00:48:32;;;;;;;0.60;0.60;;;;;;;;;;5075496;28;20829;-61
2024/01/03 00:50:59;;;;;;;0.80;0.80;;;;;;;;;;5075638;28;20443;-61
2024/01/03 00:53:26;;;;;;;0.67;0.67;;;;;;;;;;5075406;28;20526;-61
2024/01/03 00:55:53;;;;;;;0.87;0.87;;;;;;;;;;5075235;28;20475;-61
2024/01/03 00:58:20;;;;;;;0.80;0.80;;;;;;;;;;5075874;28;20713;-61
2024/01/03 01:00:49;;;;;;;1.00;0.70;;;;;;;;;;5076208;28;20454;-61
2024/01/03 01:03:16;;;;;;;0.70;0.70;;;;;;;;;;5076099;28;20453;-61
2024/01/03 01:05:43;;;;;;;0.73;0.70;;;;;;;;;;5076052;28;20535;-61
2024/01/03 01:08:10;;;;;;;1.23;0.70;;;;;;;;;;5075838;28;20487;-61
2024/01/03 01:10:37;;;;;;;0.80;0.73;;;;;;;;;;5076098;28;20449;-61
2024/01/03 01:13:04;;;;;;;0.77;0.63;;;;;;;;;;5076267;28;20447;-61
2024/01/03 01:15:31;;;;;;;0.80;0.77;;;;;;;;;;5075921;28;20529;-61
2024/01/03 01:17:59;;;;;;;0.73;0.70;;;;;;;;;;5075781;28;20541;-61
2024/01/03 01:20:26;;;;;;;0.70;0.70;;;;;;;;;;5075802;28;20482;-61
2024/01/03 01:22:53;;;;;;;0.70;0.60;;;;;;;;;;5075974;28;20538;-61
2024/01/03 01:25:20;;;;;;;0.70;0.70;;;;;;;;;;5075864;28;20530;-61
2024/01/03 01:27:47;;;;;;;0.70;0.60;;;;;;;;;;5075700;28;20514;-61
2024/01/03 01:30:14;;;;;;;0.73;0.70;;;;;;;;;;5075694;28;20444;-61
2024/01/03 01:32:41;;;;;;;0.80;0.70;;;;;;;;;;5075616;28;20538;-61
2024/01/03 01:35:10;;;;;;;0.60;0.50;;;;;;;;;;5075497;28;20578;-61
2024/01/03 01:37:37;;;;;;;0.73;0.60;;;;;;;;;;5075727;28;20446;-61
2024/01/03 01:40:04;;;;;;;0.80;0.77;;;;;;;;;;5074747;28;20535;-61
2024/01/03 01:42:31;;;;;;;0.73;0.60;;;;;;;;;;5075442;28;20448;-62
2024/01/03 01:44:58;;;;;;;2.20;0.87;;;;;;;;;;5075451;28;20863;-61
2024/01/03 01:47:25;;;;;;;0.60;0.50;;;;;;;;;;5075250;28;20531;-61
2024/01/03 01:49:52;;;;;;;0.70;0.57;;;;;;;;;;5075121;28;20482;-61
2024/01/03 01:52:21;;;;;;;0.70;0.60;;;;;;;;;;5075321;28;20526;-61
2024/01/03 01:54:48;;;;;;;0.70;0.60;;;;;;;;;;5075112;28;20562;-61
2024/01/03 01:57:15;;;;;;;1.17;0.60;;;;;;;;;;5075160;28;20451;-61
2024/01/03 01:59:42;;;;;;;0.60;0.50;;;;;;;;;;5075051;28;20893;-61
2024/01/03 02:02:09;;;;;;;1.47;0.50;;;;;;;;;;5074933;28;20455;-61
2024/01/03 02:04:36;;;;;;;0.90;0.70;;;;;;;;;;5075144;28;20444;-61
2024/01/03 02:07:03;;;;;;;0.60;0.50;;;;;;;;;;5075088;28;20435;-61
2024/01/03 02:09:32;;;;;;;2.00;0.60;;;;;;;;;;5074907;28;20483;-61
2024/01/03 02:11:59;;;;;;;1.67;0.77;;;;;;;;;;5074935;28;20546;-62
2024/01/03 02:14:26;;;;;;;0.80;0.50;;;;;;;;;;5074766;28;20874;-61
2024/01/03 02:16:53;;;;;;;0.70;0.60;;;;;;;;;;5074622;28;20900;-61
2024/01/03 02:19:20;;;;;;;0.70;0.67;;;;;;;;;;5074842;28;20449;-61
2024/01/03 02:21:48;;;;;;;0.90;0.60;;;;;;;;;;5074712;28;20872;-61
2024/01/03 02:24:15;;;;;;;0.60;0.50;;;;;;;;;;5074626;28;20470;-61
2024/01/03 02:26:42;;;;;;;0.63;0.50;;;;;;;;;;5074594;28;20522;-61
2024/01/03 02:29:09;;;;;;;0.70;0.60;;;;;;;;;;5074192;28;20994;-62
2024/01/03 02:31:36;;;;;;;0.83;0.73;;;;;;;;;;5074622;28;20882;-61
2024/01/03 02:34:03;;;;;;;0.70;0.50;;;;;;;;;;5074551;28;20450;-61
2024/01/03 02:36:30;;;;;;;0.60;0.50;;;;;;;;;;5074585;28;20538;-61
2024/01/03 02:38:59;;;;;;;0.90;0.67;;;;;;;;;;5074242;28;20935;-61
2024/01/03 02:41:25;;;;;;;0.93;0.60;;;;;;;;;;5074194;28;20534;-61
2024/01/03 02:43:52;;;;;;;0.80;0.70;;;;;;;;;;5074049;28;20535;-62
2024/01/03 02:46:19;;;;;;;0.97;0.50;;;;;;;;;;5074249;28;20449;-62
2024/01/03 02:48:46;;;;;;;0.60;0.47;;;;;;;;;;5074159;28;20482;-61
2024/01/03 02:51:18;;;;;;;0.90;0.60;;;;;;;;;;5074103;28;20875;-62
2024/01/03 02:53:45;;;;;;;0.90;0.57;;;;;;;;;;5073853;28;20459;-62
2024/01/03 02:56:14;;;;;;;1.23;0.67;;;;;;;;;;5073852;28;20834;-61
2024/01/03 02:58:41;;;;;;;0.70;0.50;;;;;;;;;;5073771;28;20447;-61
2024/01/03 03:01:08;;;;;;;0.70;0.50;;;;;;;;;;5073959;28;20475;-61
2024/01/03 03:03:35;;;;;;;0.60;0.60;;;;;;;;;;5073867;28;20538;-61
2024/01/03 03:06:03;;;;;;;0.70;0.60;;;;;;;;;;5073805;28;20889;-61
2024/01/03 03:08:30;;;;;;;0.70;0.50;;;;;;;;;;5073702;28;20475;-61
2024/01/03 03:10:57;;;;;;;0.60;0.60;;;;;;;;;;5073572;28;20787;-61
2024/01/03 03:13:26;;;;;;;0.60;0.53;;;;;;;;;;5073816;28;20534;-61
2024/01/03 03:15:53;;;;;;;0.60;0.50;;;;;;;;;;5073711;28;20494;-61
2024/01/03 03:18:20;;;;;;;1.07;0.70;;;;;;;;;;5073610;28;20550;-62
2024/01/03 03:20:47;;;;;;;3.90;0.50;;;;;;;;;;5073472;28;20934;-61
2024/01/03 03:23:14;;;;;;;0.60;0.50;;;;;;;;;;5073487;28;20454;-61
2024/01/03 03:25:41;;;;;;;0.70;0.57;;;;;;;;;;5073421;28;20501;-62
2024/01/03 03:28:08;;;;;;;1.17;0.63;;;;;;;;;;5073462;28;20450;-61
2024/01/03 03:30:37;;;;;;;1.00;0.70;;;;;;;;;;5073442;28;20452;-61
2024/01/03 03:33:04;;;;;;;1.07;0.50;;;;;;;;;;5073328;28;20886;-61
2024/01/03 03:35:31;;;;;;;2.40;0.60;;;;;;;;;;5073334;28;20994;-61
2024/01/03 03:37:58;;;;;;;2.90;0.60;;;;;;;;;;5073177;28;20444;-62
2024/01/03 03:40:25;;;;;;;0.80;0.53;;;;;;;;;;5073391;28;20538;-61
2024/01/03 03:42:52;;;;;;;0.80;0.70;;;;;;;;;;5073362;28;20447;-61
2024/01/03 03:45:19;;;;;;;0.60;0.50;;;;;;;;;;5073145;28;20534;-61
2024/01/03 03:47:48;;;;;;;1.80;0.60;;;;;;;;;;5073239;28;20506;-61
2024/01/03 03:50:15;;;;;;;0.60;0.50;;;;;;;;;;5072949;28;20506;-61
2024/01/03 03:52:42;;;;;;;0.80;0.60;;;;;;;;;;5073002;28;20474;-61
2024/01/03 03:55:09;;;;;;;0.93;0.63;;;;;;;;;;5072876;28;20562;-61
2024/01/03 03:57:36;;;;;;;0.80;0.50;;;;;;;;;;5073115;28;20527;-61
2024/01/03 04:00:04;;;;;;;1.30;0.60;;;;;;;;;;5073083;28;20455;-61
2024/01/03 04:02:31;;;;;;;3.07;0.50;;;;;;;;;;5072559;28;20478;-62
2024/01/03 04:04:59;;;;;;;0.60;0.50;;;;;;;;;;5072854;28;20447;-61
2024/01/03 04:07:28;;;;;;;0.60;0.50;;;;;;;;;;5072801;28;20444;-62
2024/01/03 04:09:55;;;;;;;0.60;0.50;;;;;;;;;;5072881;28;20899;-61
2024/01/03 04:12:22;;;;;;;0.80;0.60;;;;;;;;;;5073005;28;20500;-61
2024/01/03 04:14:49;;;;;;;3.03;0.60;;;;;;;;;;5072543;28;21025;-61
2024/01/03 04:17:16;;;;;;;0.60;0.50;;;;;;;;;;5072811;28;20871;-61
2024/01/03 04:19:43;;;;;;;1.60;0.60;;;;;;;;;;5072624;28;20447;-61
2024/01/03 04:22:11;;;;;;;0.50;0.40;;;;;;;;;;5072923;28;20444;-61
2024/01/03 04:24:38;;;;;;;0.90;0.50;;;;;;;;;;5072788;28;20474;-61
2024/01/03 04:27:05;;;;;;;0.77;0.60;;;;;;;;;;5072777;28;20574;-61
2024/01/03 04:29:32;;;;;;;1.27;0.50;;;;;;;;;;5072608;28;20479;-61
2024/01/03 04:31:59;;;;;;;0.60;0.50;;;;;;;;;;5072575;28;20546;-61
2024/01/03 04:34:26;;;;;;;1.27;0.50;;;;;;;;;;5072515;28;20532;-61
2024/01/03 04:36:53;;;;;;;1.23;0.57;;;;;;;;;;5072821;28;20895;-61
2024/01/03 04:39:21;;;;;;;1.00;0.50;;;;;;;;;;5072589;28;20530;-61
2024/01/03 04:41:48;;;;;;;1.37;0.80;;;;;;;;;;5072685;28;20534;-61
2024/01/03 04:44:15;;;;;;;1.43;0.60;;;;;;;;;;5072486;28;20439;-61
2024/01/03 04:46:43;;;;;;;1.03;0.50;;;;;;;;;;5072479;28;20529;-62
2024/01/03 04:49:10;;;;;;;1.43;0.53;;;;;;;;;;5072558;28;20876;-62
2024/01/03 04:51:37;;;;;;;1.07;0.50;;;;;;;;;;5072612;28;20538;-61
2024/01/03 04:54:04;;;;;;;0.60;0.50;;;;;;;;;;5072287;28;20478;-61
2024/01/03 04:56:33;;;;;;;1.43;0.50;;;;;;;;;;5072591;28;20540;-61
2024/01/03 04:59:00;;;;;;;0.60;0.50;;;;;;;;;;5072369;28;20458;-61
2024/01/03 05:01:27;;;;;;;2.10;0.73;;;;;;;;;;5072299;28;20476;-61
2024/01/03 05:03:54;;;;;;;0.80;0.50;;;;;;;;;;5072611;28;20447;-61
2024/01/03 05:06:21;;;;;;;1.53;0.60;;;;;;;;;;5072473;28;20469;-61
2024/01/03 05:08:48;;;;;;;3.90;1.57;;;;;;;;;;5072359;28;20439;-61
2024/01/03 05:11:15;;;;;;;0.80;0.70;;;;;;;;;;5072290;28;20877;-61
2024/01/03 05:13:43;;;;;;;1.03;0.60;;;;;;;;;;5072275;28;20885;-61
2024/01/03 05:16:10;;;;;;;2.63;0.90;;;;;;;;;;5075295;28;20439;-61
2024/01/03 05:18:37;;;;;;;1.60;0.77;;;;;;;;;;5075939;28;20450;-61
2024/01/03 05:21:05;;;;;;;0.70;0.60;;;;;;;;;;5075931;28;20451;-61
2024/01/03 05:23:32;;;;;;;1.37;1.27;;;;;;;;;;5075663;28;20954;-61
2024/01/03 05:25:59;;;;;;;1.43;0.73;;;;;;;;;;5075658;28;20534;-61
2024/01/03 05:28:26;;;;;;;1.30;1.00;;;;;;;;;;5075571;28;20530;-61
2024/01/03 05:30:54;;;;;;;4.10;0.80;;;;;;;;;;5075689;28;20487;-61
2024/01/03 05:33:21;;;;;;;0.90;0.60;;;;;;;;;;5075709;28;20530;-61
2024/01/03 05:35:48;;;;;;;0.97;0.67;;;;;;;;;;5075648;28;20849;-61
2024/01/03 05:38:15;;;;;;;1.93;0.80;;;;;;;;;;5075586;28;20950;-61
2024/01/03 05:40:42;;;;;;;1.60;0.70;;;;;;;;;;5075365;28;20518;-61
2024/01/03 05:43:11;;;;;;;2.80;0.80;;;;;;;;;;5075265;28;20505;-61
2024/01/03 05:45:38;;;;;;;0.90;0.60;;;;;;;;;;5075469;28;20453;-61
2024/01/03 05:48:06;;;;;;;1.33;0.70;;;;;;;;;;5075338;28;20450;-61
2024/01/03 05:50:33;;;;;;;4.00;0.90;;;;;;;;;;5075229;28;20903;-61
2024/01/03 05:53:00;;;;;;;4.53;0.70;;;;;;;;;;5075004;28;20443;-61
2024/01/03 05:55:28;;;;;;;0.70;0.70;;;;;;;;;;5074940;28;20468;-61
2024/01/03 05:57:55;;;;;;;1.60;0.80;;;;;;;;;;5075269;28;20518;-61
2024/01/03 06:00:22;;;;;;;3.33;1.13;;;;;;;;;;5075152;28;20555;-61
2024/01/03 06:02:49;;;;;;;0.60;0.60;;;;;;;;;;5075124;28;20867;-61
2024/01/03 06:05:18;;;;;;;2.27;0.80;;;;;;;;;;5074958;28;20483;-61
2024/01/03 06:07:45;;;;;;;1.70;0.70;;;;;;;;;;5074965;28;20452;-61
2024/01/03 06:10:12;;;;;;;1.70;0.90;;;;;;;;;;5074761;28;20479;-61
2024/01/03 06:12:39;;;;;;;1.97;1.20;;;;;;;;;;5074985;28;20443;-61
2024/01/03 06:15:07;;;;;;;0.90;0.67;;;;;;;;;;5074912;28;20448;-61
2024/01/03 06:17:34;;;;;;;1.47;0.90;;;;;;;;;;5074808;28;20534;-61
2024/01/03 06:20:01;;;;;;;1.00;0.73;;;;;;;;;;5074755;28;20543;-61
2024/01/03 06:22:29;;;;;;;2.57;2.37;;;;;;;;;;5074563;28;20536;-61
2024/01/03 06:24:56;;;;;;;1.00;0.60;;;;;;;;;;5074440;28;20534;-61
2024/01/03 06:27:23;;;;;;;1.33;0.60;;;;;;;;;;5074434;28;20748;-61
2024/01/03 06:29:50;;;;;;;2.33;0.83;;;;;;;;;;5074284;28;20471;-61
2024/01/03 06:32:17;;;;;;;3.20;0.73;;;;;;;;;;5074421;28;20534;-61
2024/01/03 06:34:43;;;;;;;1.00;0.60;;;;;;;;;;5074122;28;21014;-61
2024/01/03 06:37:10;;;;;;;0.97;0.60;;;;;;;;;;5074120;28;20475;-62
2024/01/03 06:39:39;;;;;;;2.70;0.60;;;;;;;;;;5074410;28;20447;-61
2024/01/03 06:42:05;;;;;;;1.50;0.67;;;;;;;;;;5074291;28;20475;-61
2024/01/03 06:44:32;;;;;;;1.20;0.83;;;;;;;;;;5074152;28;20451;-62
2024/01/03 06:46:59;;;;;;;3.77;0.87;;;;;;;;;;5074023;28;20534;-61
2024/01/03 06:49:26;;;;;;;2.50;0.90;;;;;;;;;;5073923;28;20524;-61
2024/01/03 06:51:53;;;;;;;1.20;0.70;;;;;;;;;;5073850;28;20475;-61
2024/01/03 06:54:21;;;;;;;1.40;0.80;;;;;;;;;;5073828;28;20556;-61
2024/01/03 06:56:49;;;;;;;2.60;0.90;;;;;;;;;;5073876;28;20579;-61
2024/01/03 06:59:16;;;;;;;1.40;0.70;;;;;;;;;;5073657;28;20538;-61
2024/01/03 07:01:43;;;;;;;2.27;1.30;;;;;;;;;;5073752;28;20543;-61
2024/01/03 07:04:10;;;;;;;1.10;0.90;;;;;;;;;;5073478;28;20479;-62
2024/01/03 07:06:37;;;;;;;2.43;0.80;;;;;;;;;;5073918;28;20443;-61
2024/01/03 07:09:05;;;;;;;2.17;0.60;;;;;;;;;;5073709;28;20882;-61
2024/01/03 07:11:33;;;;;;;1.63;0.90;;;;;;;;;;5073612;28;20522;-61
2024/01/03 07:14:01;;;;;;;2.10;0.90;;;;;;;;;;5073446;28;20459;-61
2024/01/03 07:16:28;;;;;;;1.90;1.17;;;;;;;;;;5073201;28;20553;-61
2024/01/03 07:18:55;;;;;;;1.93;1.00;;;;;;;;;;5073488;28;20477;-61
2024/01/03 07:21:23;;;;;;;1.73;0.73;;;;;;;;;;5073433;28;20459;-61
2024/01/03 07:23:50;;;;;;;4.57;0.97;;;;;;;;;;5073444;28;20451;-61
2024/01/03 07:26:17;;;;;;;0.70;0.60;;;;;;;;;;5073469;28;20448;-61
2024/01/03 07:28:44;;;;;;;0.60;0.50;;;;;;;;;;5073236;28;20943;-62
2024/01/03 07:31:13;;;;;;;2.00;0.90;;;;;;;;;;5073284;28;20514;-62
2024/01/03 07:33:41;;;;;;;0.70;0.60;;;;;;;;;;5073466;28;20903;-62
2024/01/03 07:36:08;;;;;;;1.40;1.20;;;;;;;;;;5073452;28;20961;-62
2024/01/03 07:38:35;;;;;;;1.13;0.70;;;;;;;;;;5072662;28;20444;-62
2024/01/03 07:41:02;;;;;;;2.00;0.70;;;;;;;;;;5073202;28;20444;-62
2024/01/03 07:43:29;;;;;;;1.43;1.00;;;;;;;;;;5073220;28;20878;-62
2024/01/03 07:45:56;;;;;;;1.17;0.80;;;;;;;;;;5072875;28;20449;-62
2024/01/03 07:48:24;;;;;;;2.07;0.67;;;;;;;;;;5073172;28;20776;-61
2024/01/03 07:50:51;;;;;;;3.77;0.77;;;;;;;;;;5072985;28;20578;-62
2024/01/03 07:53:18;;;;;;;1.63;0.87;;;;;;;;;;5073018;28;20474;-62
2024/01/03 07:55:45;;;;;;;4.33;1.57;;;;;;;;;;5072648;28;20912;-62
2024/01/03 07:58:13;;;;;;;1.23;0.80;;;;;;;;;;5072887;28;20431;-62
2024/01/03 08:00:40;;;;;;;2.00;0.80;;;;;;;;;;5072644;28;20534;-62
2024/01/03 08:03:07;;;;;;;1.00;0.60;;;;;;;;;;5072835;28;20530;-62
2024/01/03 08:05:35;;;;;;;3.47;0.80;;;;;;;;;;5072802;28;20921;-61
2024/01/03 08:08:02;;;;;;;2.60;1.10;;;;;;;;;;5072798;28;20534;-62
2024/01/03 08:10:29;;;;;;;2.33;1.73;;;;;;;;;;5072640;28;20475;-62
2024/01/03 08:12:55;;;;;;;2.50;0.70;;;;;;;;;;5072667;28;20780;-62
2024/01/03 08:15:22;;;;;;;3.33;1.00;;;;;;;;;;5072877;28;20476;-62
2024/01/03 08:17:49;;;;;;;7.30;1.07;;;;;;;;;;5072693;28;20443;-62
2024/01/03 08:20:16;;;;;;;4.17;0.90;;;;;;;;;;5072707;28;20535;-61
2024/01/03 08:22:45;;;;;;;0.90;0.70;;;;;;;;;;5072531;28;20963;-62
2024/01/03 08:25:11;;;;;;;1.40;0.70;;;;;;;;;;5072512;28;20447;-61
2024/01/03 08:27:39;;;;;;;1.50;0.60;;;;;;;;;;5072406;28;20811;-62
2024/01/03 08:30:06;;;;;;;4.40;0.80;;;;;;;;;;5072662;28;20475;-62
2024/01/03 08:32:35;;;;;;;1.97;0.80;;;;;;;;;;5072670;28;20454;-62
2024/01/03 08:35:02;;;;;;;2.50;0.83;;;;;;;;;;5072616;28;20443;-62
2024/01/03 08:37:29;;;;;;;2.20;0.87;;;;;;;;;;5072503;28;20889;-62
2024/01/03 08:39:58;;;;;;;2.13;0.73;;;;;;;;;;5072461;28;20447;-62
2024/01/03 08:42:25;;;;;;;2.07;1.00;;;;;;;;;;5072337;28;20452;-62
2024/01/03 08:44:52;;;;;;;1.93;0.80;;;;;;;;;;5072227;28;20997;-62
2024/01/03 08:47:19;;;;;;;2.70;0.60;;;;;;;;;;5072357;28;20538;-62
2024/01/03 08:49:46;;;;;;;0.77;0.67;;;;;;;;;;5074906;28;20475;-62
2024/01/03 08:52:13;;;;;;;3.90;0.67;;;;;;;;;;5075847;28;20538;-62
2024/01/03 08:54:41;;;;;;;1.77;0.70;;;;;;;;;;5075371;28;20562;-62
2024/01/03 08:57:09;;;;;;;1.83;0.80;;;;;;;;;;5075604;28;20542;-62
2024/01/03 08:59:36;;;;;;;2.23;0.93;;;;;;;;;;5075207;28;20798;-62
2024/01/03 09:02:04;;;;;;;0.80;0.60;;;;;;;;;;5075525;28;20482;-62
2024/01/03 09:04:31;;;;;;;1.80;0.70;;;;;;;;;;5075388;28;20473;-62
2024/01/03 09:06:58;;;;;;;1.60;0.70;;;;;;;;;;5075257;28;20530;-62
2024/01/03 09:09:25;;;;;;;0.90;0.57;;;;;;;;;;5075632;28;20443;-61
2024/01/03 09:11:52;;;;;;;2.90;0.80;;;;;;;;;;5075316;28;20552;-62
2024/01/03 09:14:20;;;;;;;1.87;0.67;;;;;;;;;;5075364;28;20978;-61
2024/01/03 09:16:47;;;;;;;1.90;0.97;;;;;;;;;;5074560;28;20462;-62
2024/01/03 09:19:14;;;;;;;1.80;0.80;;;;;;;;;;5074644;28;20962;-61
2024/01/03 09:21:45;;;;;;;1.17;0.90;;;;;;;;;;5074878;28;20512;-62
2024/01/03 09:24:12;;;;;;;1.43;0.70;;;;;;;;;;5075097;28;20514;-62
2024/01/03 09:26:39;;;;;;;1.00;0.80;;;;;;;;;;5074606;28;20803;-62
2024/01/03 09:29:07;;;;;;;1.30;0.80;;;;;;;;;;5074213;28;20440;-62
2024/01/03 09:31:35;;;;;;;2.33;0.73;;;;;;;;;;5074694;28;20511;-62
2024/01/03 09:34:02;;;;;;;1.70;0.70;;;;;;;;;;5074558;28;20527;-62
2024/01/03 09:36:29;;;;;;;1.67;0.80;;;;;;;;;;5074760;28;20875;-62
2024/01/03 09:38:55;;;;;;;0.80;0.70;;;;;;;;;;5074429;28;20534;-62
2024/01/03 09:41:23;;;;;;;1.10;0.80;;;;;;;;;;5074812;28;20534;-62
2024/01/03 09:43:52;;;;;;;1.50;0.97;;;;;;;;;;5074745;28;20468;-62
2024/01/03 09:46:20;;;;;;;1.43;0.60;;;;;;;;;;5074099;28;20554;-62
2024/01/03 09:48:49;;;;;;;2.53;1.00;;;;;;;;;;5074159;28;20450;-62
2024/01/03 09:51:16;;;;;;;1.17;0.70;;;;;;;;;;5074250;28;20482;-62
2024/01/03 09:53:44;;;;;;;4.10;0.87;;;;;;;;;;5074386;28;20535;-62
2024/01/03 09:56:10;;;;;;;4.03;1.07;;;;;;;;;;5074512;28;20538;-61
2024/01/03 09:58:38;;;;;;;3.40;0.97;;;;;;;;;;5074389;28;20497;-62
2024/01/03 10:01:05;;;;;;;2.63;0.87;;;;;;;;;;5073597;28;20483;-62
2024/01/03 10:03:32;;;;;;;2.93;0.87;;;;;;;;;;5074200;28;20535;-63
2024/01/03 10:06:09;;;;;;;2.10;0.80;;;;;;;;;;5074371;28;20494;-62
2024/01/03 10:08:36;;;;;;;1.43;0.83;;;;;;;;;;5074293;28;20447;-62
2024/01/03 10:11:03;;;;;;;2.20;1.07;;;;;;;;;;5073876;28;21033;-63
2024/01/03 10:13:30;;;;;;;3.77;0.80;;;;;;;;;;5073996;28;20543;-62
2024/01/03 10:16:04;;;;;;;0.83;0.70;;;;;;;;;;5074035;28;20444;-63
2024/01/03 10:18:32;;;;;;;1.57;0.80;;;;;;;;;;5074046;28;20921;-63
2024/01/03 10:21:12;;;;;;;6.60;1.10;;;;;;;;;;5074135;28;20443;-62
2024/01/03 10:23:40;;;;;;;1.10;0.80;;;;;;;;;;5074089;28;20534;-63
2024/01/03 10:26:07;;;;;;;3.00;0.90;;;;;;;;;;5073898;28;20749;-62
2024/01/03 10:28:34;;;;;;;1.40;0.93;;;;;;;;;;5073739;28;20447;-62
2024/01/03 10:31:07;;;;;;;2.43;0.90;;;;;;;;;;5073843;28;20572;-62
2024/01/03 10:33:34;;;;;;;3.37;1.20;;;;;;;;;;5073965;28;20444;-62
2024/01/03 10:36:10;;;;;;;1.43;1.03;;;;;;;;;;5073617;28;20522;-62
2024/01/03 10:38:37;;;;;;;6.03;0.83;;;;;;;;;;5073660;28;20779;-62
2024/01/03 10:41:05;;;;;;;1.93;0.80;;;;;;;;;;5073479;28;20516;-63
2024/01/03 10:43:33;;;;;;;1.93;0.83;;;;;;;;;;5073718;28;20530;-62
2024/01/03 10:46:00;;;;;;;1.73;0.83;;;;;;;;;;5073403;28;20450;-60
2024/01/03 10:48:27;;;;;;;2.20;1.10;;;;;;;;;;5073450;28;20530;-60
2024/01/03 10:50:55;;;;;;;1.03;0.70;;;;;;;;;;5072781;28;20517;-63
2024/01/03 10:53:22;;;;;;;2.60;0.90;;;;;;;;;;5073057;28;20478;-61
2024/01/03 10:55:54;;;;;;;3.60;1.10;;;;;;;;;;5073025;28;20901;-64
2024/01/03 10:58:24;;;;;;;1.97;0.90;;;;;;;;;;5073442;28;20448;-62
2024/01/03 11:00:55;;;;;;;2.33;0.90;;;;;;;;;;5073204;28;20501;-64
2024/01/03 11:03:25;;;;;;;1.90;0.87;;;;;;;;;;5073130;28;20831;-63
2024/01/03 11:05:57;;;;;;;2.07;0.83;;;;;;;;;;5072857;28;20457;-61
2024/01/03 11:08:28;;;;;;;1.07;0.70;;;;;;;;;;5073122;28;20530;-63
2024/01/03 11:10:55;;;;;;;2.20;0.80;;;;;;;;;;5072991;28;20765;-63
2024/01/03 11:13:30;;;;;;;1.40;0.80;;;;;;;;;;5071793;28;20443;-62
2024/01/03 11:15:58;;;;;;;1.90;0.90;;;;;;;;;;5072881;28;20473;-62
2024/01/03 11:18:43;;;;;;;0.90;0.70;;;;;;;;;;5072705;28;20444;-63
2024/01/03 11:21:30;;;;;;;1.40;1.00;;;;;;;;;;5072932;28;20531;-62
2024/01/03 11:23:57;;;;;;;6.63;2.33;;;;;;;;;;5072834;28;20439;-63
2024/01/03 11:27:03;;;;;;;3.80;1.30;;;;;;;;;;5072820;28;20950;-62
2024/01/03 11:29:44;;;;;;;1.40;0.70;;;;;;;;;;5072570;28;20974;-63
2024/01/03 11:32:12;;;;;;;1.10;0.80;;;;;;;;;;5072609;28;20482;-62
2024/01/03 11:34:39;;;;;;;1.20;0.80;;;;;;;;;;5072427;28;20934;-60
2024/01/03 11:37:07;;;;;;;3.27;1.10;;;;;;;;;;5072477;28;20530;-65
2024/01/03 11:39:35;;;;;;;1.70;0.90;;;;;;;;;;5072382;28;20862;-59
2024/01/03 11:42:03;;;;;;;2.20;1.00;;;;;;;;;;5072357;28;20482;-61
2024/01/03 11:44:30;;;;;;;3.57;1.17;;;;;;;;;;5072517;28;20531;-62
2024/01/03 11:47:01;;;;;;;2.00;1.20;;;;;;;;;;5072324;28;20531;-61
2024/01/03 11:49:28;;;;;;;2.43;0.93;;;;;;;;;;5072155;28;20523;-63
2024/01/03 11:51:57;;;;;;;3.70;0.90;;;;;;;;;;5072250;28;20574;-63
2024/01/03 11:54:24;;;;;;;2.37;0.73;;;;;;;;;;5072302;28;20570;-61
2024/01/03 11:56:53;;;;;;;1.93;1.50;;;;;;;;;;5072465;28;20530;-62
2024/01/03 11:59:21;;;;;;;2.50;1.20;;;;;;;;;;5072465;28;20451;-63
2024/01/03 12:01:57;;;;;;;2.33;1.43;;;;;;;;;;5072027;28;20466;-63
2024/01/03 12:04:26;;;;;;;2.47;1.00;;;;;;;;;;5072151;28;20479;-64
2024/01/03 12:06:57;;;;;;;2.80;1.27;;;;;;;;;;5072342;28;20538;-64
2024/01/03 12:09:24;;;;;;;4.07;1.10;;;;;;;;;;5072273;28;20535;-64
2024/01/03 12:11:51;;;;;;;2.77;1.00;;;;;;;;;;5071961;28;20485;-65
2024/01/03 12:14:18;;;;;;;3.47;1.20;;;;;;;;;;5071926;28;21006;-62
2024/01/03 12:16:48;;;;;;;1.40;1.00;;;;;;;;;;5072280;28;20543;-63
2024/01/03 12:19:22;;;;;;;2.40;1.00;;;;;;;;;;5072783;28;20471;-64
2024/01/03 12:22:00;;;;;;;1.70;0.93;;;;;;;;;;5072625;28;20466;-65
2024/01/03 12:24:39;;;;;;;4.83;1.57;;;;;;;;;;5074957;28;20451;-63
2024/01/03 12:27:06;;;;;;;2.20;1.30;;;;;;;;;;5076633;28;20930;-63
2024/01/03 12:29:34;;;;;;;3.43;1.43;;;;;;;;;;5076666;28;20447;-63
2024/01/03 12:32:09;;;;;;;2.40;1.10;;;;;;;;;;5076703;28;20528;-64
2024/01/03 12:34:36;;;;;;;2.77;1.20;;;;;;;;;;5076688;28;20529;-65
2024/01/03 12:37:04;;;;;;;3.67;1.43;;;;;;;;;;5076461;28;21021;-65
2024/01/03 12:39:35;;;;;;;1.90;1.10;;;;;;;;;;5076088;28;20436;-65
2024/01/03 12:42:05;;;;;;;4.17;1.10;;;;;;;;;;5076687;28;20446;-63
2024/01/03 12:44:32;;;;;;;2.10;1.00;;;;;;;;;;5076314;28;20454;-61
2024/01/03 12:46:59;;;;;;;2.60;1.00;;;;;;;;;;5076370;28;20450;-61
2024/01/03 12:49:26;;;;;;;3.83;1.00;;;;;;;;;;5076333;28;20538;-63
2024/01/03 12:51:53;;;;;;;2.20;1.13;;;;;;;;;;5076188;28;20842;-63
2024/01/03 12:54:21;;;;;;;3.03;1.20;;;;;;;;;;5075881;28;20520;-63
2024/01/03 12:56:48;;;;;;;3.07;1.30;;;;;;;;;;5076343;28;20536;-63
2024/01/03 12:59:17;;;;;;;3.70;1.33;;;;;;;;;;5076153;28;20857;-63
2024/01/03 13:01:44;;;;;;;1.97;0.80;;;;;;;;;;5076055;28;20504;-63
2024/01/03 13:04:11;;;;;;;5.90;3.30;;;;;;;;;;5076015;28;21000;-62
2024/01/03 13:06:38;;;;;;;3.30;1.90;;;;;;;;;;5075867;28;20447;-64
2024/01/03 13:09:05;;;;;;;3.30;2.03;;;;;;;;;;5075703;28;20527;-63
2024/01/03 13:11:35;;;;;;;2.80;1.13;;;;;;;;;;5075956;28;20475;-64
2024/01/03 13:14:02;;;;;;;1.67;0.80;;;;;;;;;;5079571;28;20445;-62
2024/01/03 13:16:29;;;;;;;3.00;1.10;;;;;;;;;;5094269;28;20439;-61
2024/01/03 13:18:56;;;;;;;2.97;1.20;;;;;;;;;;5093963;28;20934;-62
2024/01/03 13:21:23;;;;;;;3.20;1.50;;;;;;;;;;5093321;28;20799;-64
2024/01/03 13:23:50;;;;;;;5.03;1.23;;;;;;;;;;5095742;28;20533;-65
2024/01/03 13:26:17;;;;;;;1.97;1.13;;;;;;;;;;5095758;28;20541;-64
2024/01/03 13:28:45;;;;;;;3.03;1.40;;;;;;;;;;5095901;28;20583;-64
2024/01/03 13:31:15;;;;;;;2.37;1.23;;;;;;;;;;5095587;28;20529;-64
2024/01/03 13:33:42;;;;;;;2.90;1.17;;;;;;;;;;5095649;28;21126;-65
2024/01/03 13:36:09;;;;;;;4.17;1.03;;;;;;;;;;5094463;28;20446;-62
2024/01/03 13:38:36;;;;;;;2.73;1.37;;;;;;;;;;5095737;28;20533;-64
2024/01/03 13:41:03;;;;;;;1.10;1.00;;;;;;;;;;5095710;28;20442;-65
2024/01/03 13:43:30;;;;;;;3.93;1.20;;;;;;;;;;5095597;28;20529;-61
2024/01/03 13:45:58;;;;;;;5.83;2.60;;;;;;;;;;5095486;28;20542;-63
2024/01/03 13:48:26;;;;;;;2.60;1.37;;;;;;;;;;5095267;28;20450;-62
2024/01/03 13:50:53;;;;;;;2.27;1.10;;;;;;;;;;5095490;28;20533;-63
2024/01/03 13:53:20;;;;;;;2.70;1.20;;;;;;;;;;5095377;28;20572;-63
2024/01/03 13:55:47;;;;;;;4.30;2.20;;;;;;;;;;5095244;28;20478;-63
2024/01/03 13:58:14;;;;;;;1.87;1.10;;;;;;;;;;5095012;28;20435;-58
2024/01/03 14:00:41;;;;;;;1.63;0.80;;;;;;;;;;5094952;28;20529;-59
2024/01/03 14:03:09;;;;;;;0.93;0.67;;;;;;;;;;5094915;28;21029;-59
2024/01/03 14:05:37;;;;;;;3.13;1.10;;;;;;;;;;5095188;28;20442;-59
2024/01/03 14:08:06;;;;;;;2.80;1.10;;;;;;;;;;5095157;28;20537;-60
2024/01/03 14:10:33;;;;;;;1.20;0.70;;;;;;;;;;5094888;28;20443;-58
2024/01/03 14:13:00;;;;;;;2.00;0.67;;;;;;;;;;5094902;28;20479;-58
2024/01/03 14:15:28;;;;;;;2.50;0.70;;;;;;;;;;5094817;28;20454;-60
2024/01/03 14:17:55;;;;;;;1.63;0.70;;;;;;;;;;5094973;28;20454;-60
2024/01/03 14:20:23;;;;;;;1.83;0.80;;;;;;;;;;5095053;28;20439;-60
2024/01/03 14:22:51;;;;;;;0.90;0.70;;;;;;;;;;5094901;28;20871;-59
2024/01/03 14:25:21;;;;;;;1.13;0.80;;;;;;;;;;5094796;28;20443;-59
2024/01/03 14:27:52;;;;;;;1.70;1.60;;;;;;;;;;5094712;28;20499;-60
2024/01/03 14:30:19;;;;;;;1.83;1.03;;;;;;;;;;5094619;28;20470;-60
2024/01/03 14:32:46;;;;;;;1.40;1.23;;;;;;;;;;5094865;28;20504;-60
2024/01/03 14:35:15;;;;;;;2.40;1.63;;;;;;;;;;5094678;28;20819;-58
2024/01/03 14:37:43;;;;;;;4.40;2.93;;;;;;;;;;5094424;28;20933;-60
2024/01/03 14:40:15;;;;;;;1.30;0.83;;;;;;;;;;5094358;28;20454;-60
2024/01/03 14:42:47;;;;;;;1.43;0.77;;;;;;;;;;5094472;28;20446;-60
2024/01/03 14:45:14;;;;;;;2.23;1.00;;;;;;;;;;5094577;28;20495;-59
2024/01/03 14:47:42;;;;;;;1.10;0.80;;;;;;;;;;5094264;28;20537;-60